Time;durP1;ratioP1;P1;durP2;ratioP2;P2;SDS_P1;SDS_P2;PMS_P1;PMS_P2;Temp;Humidity;BMP_temperature;BMP_pressure;BME280_temperature;BME280_humidity;BME280_pressure;Samples;Min_cycle;Max_cycle;Signal;HPM_P1;HPM_P2
2023/03/06 00:00:55;;;;;;;17.40;10.48;;;5.30;99.90;;;;;;4886151;29;20210;-77
2023/03/06 00:03:26;;;;;;;12.55;10.40;;;5.20;99.90;;;;;;4893959;29;20202;-77
2023/03/06 00:05:57;;;;;;;11.88;10.65;;;5.10;99.90;;;;;;4890617;29;20210;-76
2023/03/06 00:08:27;;;;;;;11.23;10.13;;;5.10;99.90;;;;;;4890450;29;20233;-75
2023/03/06 00:10:56;;;;;;;10.80;9.07;;;5.10;99.90;;;;;;4870387;29;20234;-77
2023/03/06 00:13:25;;;;;;;9.52;8.63;;;5.10;99.90;;;;;;4889779;29;20206;-76
2023/03/06 00:15:53;;;;;;;10.15;8.93;;;5.10;99.90;;;;;;4884661;29;20657;-75
2023/03/06 00:18:21;;;;;;;11.07;10.07;;;5.10;99.90;;;;;;4892998;29;20226;-77
2023/03/06 00:20:49;;;;;;;9.70;8.35;;;5.00;99.90;;;;;;4887045;29;20218;-77
2023/03/06 00:23:19;;;;;;;10.80;9.65;;;5.00;99.90;;;;;;4888884;29;20235;-81
2023/03/06 00:25:47;;;;;;;11.63;10.63;;;4.90;99.90;;;;;;4878999;29;20195;-78
2023/03/06 00:28:16;;;;;;;11.23;10.10;;;5.00;99.90;;;;;;4883561;29;20509;-77
2023/03/06 00:30:46;;;;;;;12.35;9.82;;;5.00;99.90;;;;;;4882045;29;20207;-76
2023/03/06 00:33:14;;;;;;;10.80;9.80;;;5.00;99.90;;;;;;4869205;29;20254;-75
2023/03/06 00:35:42;;;;;;;10.65;9.55;;;5.00;99.90;;;;;;4869269;29;20207;-75
2023/03/06 00:38:12;;;;;;;11.80;10.40;;;5.00;99.90;;;;;;4880385;29;20798;-77
2023/03/06 00:40:41;;;;;;;11.57;10.52;;;5.00;99.90;;;;;;4869959;29;20231;-76
2023/03/06 00:43:09;;;;;;;12.70;10.23;;;4.90;99.90;;;;;;4882353;29;20199;-75
2023/03/06 00:45:38;;;;;;;12.13;10.75;;;5.00;99.90;;;;;;4880534;29;20237;-76
2023/03/06 00:48:06;;;;;;;11.90;10.57;;;4.90;99.90;;;;;;4884305;29;20302;-76
2023/03/06 00:50:35;;;;;;;12.30;10.77;;;4.90;99.90;;;;;;4883712;29;20213;-74
2023/03/06 00:53:03;;;;;;;12.48;10.73;;;4.90;99.90;;;;;;4885826;29;20728;-74
2023/03/06 00:55:32;;;;;;;13.73;11.50;;;4.90;99.90;;;;;;4892273;29;20572;-74
2023/03/06 00:58:01;;;;;;;11.20;10.00;;;4.80;99.90;;;;;;4894583;29;20241;-75
2023/03/06 01:00:30;;;;;;;13.73;12.02;;;4.90;99.90;;;;;;4887890;29;20214;-76
2023/03/06 01:02:58;;;;;;;16.00;11.30;;;4.80;99.90;;;;;;4893109;29;20194;-76
2023/03/06 01:05:26;;;;;;;14.10;12.15;;;4.80;99.90;;;;;;4884362;29;20557;-75
2023/03/06 01:07:54;;;;;;;13.82;12.43;;;4.90;99.90;;;;;;4887761;29;20218;-75
2023/03/06 01:10:22;;;;;;;15.13;12.10;;;4.80;99.90;;;;;;4875262;29;20262;-75
2023/03/06 01:12:50;;;;;;;16.25;11.32;;;4.80;99.90;;;;;;4886932;29;20199;-78
2023/03/06 01:15:21;;;;;;;15.10;12.73;;;4.80;99.90;;;;;;4881318;29;20211;-78
2023/03/06 01:17:52;;;;;;;18.88;13.82;;;4.80;99.90;;;;;;4894076;29;20546;-78
2023/03/06 01:20:21;;;;;;;16.30;12.45;;;4.90;99.90;;;;;;4886852;29;20207;-75
2023/03/06 01:22:49;;;;;;;13.10;11.25;;;4.80;99.90;;;;;;4890556;29;20210;-76
2023/03/06 01:25:17;;;;;;;13.23;11.07;;;4.80;99.90;;;;;;4885293;29;20227;-77
2023/03/06 01:27:45;;;;;;;11.88;10.68;;;4.90;99.90;;;;;;4881580;29;20281;-79
2023/03/06 01:30:13;;;;;;;12.32;11.05;;;5.00;99.90;;;;;;4879675;29;20205;-79
2023/03/06 01:32:43;;;;;;;12.38;10.98;;;5.10;99.90;;;;;;4884169;29;20206;-77
2023/03/06 01:35:11;;;;;;;11.48;10.38;;;5.00;99.90;;;;;;4885708;29;20253;-76
2023/03/06 01:37:40;;;;;;;13.57;11.88;;;5.00;99.90;;;;;;4884559;29;20314;-77
2023/03/06 01:40:11;;;;;;;13.73;11.88;;;5.00;99.90;;;;;;4882272;29;20695;-77
2023/03/06 01:42:40;;;;;;;13.50;11.13;;;5.00;99.90;;;;;;4886801;29;20615;-77
2023/03/06 01:45:47;;;;;;;13.68;11.90;;;4.90;99.90;;;;;;4890026;29;20210;-75
2023/03/06 01:48:16;;;;;;;11.77;10.60;;;4.90;99.90;;;;;;4872111;29;20234;-76
2023/03/06 01:50:45;;;;;;;17.02;12.98;;;4.90;99.90;;;;;;4888077;29;20228;-75
2023/03/06 01:53:14;;;;;;;12.02;10.75;;;5.00;99.90;;;;;;4872740;29;20230;-75
2023/03/06 01:55:43;;;;;;;16.92;11.57;;;5.00;99.90;;;;;;4887574;29;20198;-75
2023/03/06 01:58:16;;;;;;;13.45;10.40;;;4.90;99.90;;;;;;4885082;29;20214;-74
2023/03/06 02:00:44;;;;;;;12.85;11.55;;;4.90;99.90;;;;;;4887794;29;20260;-75
2023/03/06 02:03:18;;;;;;;15.68;11.05;;;4.90;99.90;;;;;;4888080;29;20207;-75
2023/03/06 02:05:46;;;;;;;13.35;10.90;;;5.00;99.90;;;;;;4873862;29;20202;-77
2023/03/06 02:08:17;;;;;;;11.98;10.93;;;5.00;99.90;;;;;;4883053;29;20237;-77
2023/03/06 02:10:58;;;;;;;14.73;10.57;;;5.00;99.90;;;;;;4887979;29;20194;-76
2023/03/06 02:13:26;;;;;;;12.45;10.93;;;4.90;99.90;;;;;;4886170;29;20210;-75
2023/03/06 02:15:55;;;;;;;12.35;10.32;;;5.00;99.90;;;;;;4893577;29;20203;-75
2023/03/06 02:18:25;;;;;;;11.40;10.13;;;5.00;99.90;;;;;;4870040;29;20732;-76
2023/03/06 02:20:55;;;;;;;12.88;10.80;;;4.90;99.90;;;;;;4885202;29;20197;-76
2023/03/06 02:23:31;;;;;;;11.50;10.40;;;4.90;99.90;;;;;;4890577;29;20268;-76
2023/03/06 02:26:02;;;;;;;11.80;10.57;;;4.90;99.90;;;;;;4889333;29;20206;-76
2023/03/06 02:28:30;;;;;;;13.90;10.27;;;5.00;99.90;;;;;;4885917;29;20759;-73
2023/03/06 02:30:58;;;;;;;12.65;10.48;;;4.90;99.90;;;;;;4877818;29;20199;-76
2023/03/06 02:33:28;;;;;;;11.80;10.70;;;4.90;99.90;;;;;;4884843;29;20199;-75
2023/03/06 02:35:59;;;;;;;12.40;10.30;;;4.90;99.90;;;;;;4886240;29;21040;-74
2023/03/06 02:38:29;;;;;;;12.73;11.32;;;4.90;99.90;;;;;;4887196;29;20853;-75
2023/03/06 02:40:58;;;;;;;12.45;10.90;;;4.90;99.90;;;;;;4877418;29;20585;-77
2023/03/06 02:43:31;;;;;;;11.02;10.02;;;4.80;99.90;;;;;;4889455;29;20226;-72
2023/03/06 02:45:59;;;;;;;11.20;10.20;;;4.80;99.90;;;;;;4896225;29;20619;-75
2023/03/06 02:48:27;;;;;;;12.93;10.20;;;4.80;99.90;;;;;;4889785;29;20226;-74
2023/03/06 02:50:55;;;;;;;12.13;10.40;;;4.90;99.90;;;;;;4889754;29;20272;-75
2023/03/06 02:53:24;;;;;;;12.18;10.93;;;4.90;99.90;;;;;;4883695;29;20267;-75
2023/03/06 02:55:52;;;;;;;14.18;11.10;;;4.90;99.90;;;;;;4890217;29;20260;-78
2023/03/06 02:58:20;;;;;;;15.43;10.32;;;4.90;99.90;;;;;;4888832;29;20506;-77
2023/03/06 03:00:50;;;;;;;12.88;10.40;;;4.90;99.90;;;;;;4894255;29;20227;-78
2023/03/06 03:03:19;;;;;;;11.30;10.25;;;4.90;99.90;;;;;;4887317;29;20197;-75
2023/03/06 03:05:47;;;;;;;12.90;11.40;;;4.90;99.90;;;;;;4893710;29;20203;-76
2023/03/06 03:08:15;;;;;;;13.63;10.68;;;4.80;99.90;;;;;;4890882;29;20232;-78
2023/03/06 03:10:43;;;;;;;14.80;10.52;;;4.90;99.90;;;;;;4891530;29;20233;-77
2023/03/06 03:13:11;;;;;;;12.40;10.98;;;4.90;99.90;;;;;;4888189;29;20205;-78
2023/03/06 03:15:40;;;;;;;13.10;11.15;;;4.80;99.90;;;;;;4892694;29;20201;-75
2023/03/06 03:18:10;;;;;;;13.60;11.00;;;4.80;99.90;;;;;;4891658;29;21484;-76
2023/03/06 03:20:42;;;;;;;14.45;10.93;;;4.90;99.90;;;;;;4887253;29;20239;-76
2023/03/06 03:23:10;;;;;;;11.82;10.63;;;4.80;99.90;;;;;;4885904;29;20210;-76
2023/03/06 03:25:38;;;;;;;11.07;9.95;;;4.90;99.90;;;;;;4889943;29;20332;-75
2023/03/06 03:28:06;;;;;;;11.82;10.63;;;4.80;99.90;;;;;;4886852;29;20281;-76
2023/03/06 03:30:34;;;;;;;13.98;11.30;;;4.80;99.90;;;;;;4885527;29;20198;-79
2023/03/06 03:33:02;;;;;;;12.13;10.80;;;4.90;99.90;;;;;;4890355;29;20289;-75
2023/03/06 03:35:32;;;;;;;11.27;10.23;;;4.80;99.90;;;;;;4887507;29;20207;-76
2023/03/06 03:38:01;;;;;;;12.60;10.32;;;4.80;99.90;;;;;;4885580;29;20222;-76
2023/03/06 03:40:29;;;;;;;13.68;10.65;;;4.90;99.90;;;;;;4884013;29;20236;-76
2023/03/06 03:42:57;;;;;;;16.98;11.38;;;4.80;99.90;;;;;;4878093;29;20202;-78
2023/03/06 03:45:25;;;;;;;10.48;9.38;;;4.90;99.90;;;;;;4888518;29;20306;-78
2023/03/06 03:47:54;;;;;;;12.20;11.00;;;4.90;99.90;;;;;;4871703;29;20211;-78
2023/03/06 03:50:22;;;;;;;12.18;11.00;;;4.80;99.90;;;;;;4888297;29;20241;-78
2023/03/06 03:52:51;;;;;;;12.93;10.05;;;4.80;99.90;;;;;;4893260;29;20676;-77
2023/03/06 03:55:19;;;;;;;11.60;10.60;;;4.80;99.90;;;;;;4888566;29;20207;-76
2023/03/06 03:57:47;;;;;;;13.38;10.70;;;4.80;99.90;;;;;;4888374;29;20226;-76
2023/03/06 04:00:17;;;;;;;16.08;9.95;;;4.80;99.90;;;;;;4890160;29;20205;-76
2023/03/06 04:02:46;;;;;;;11.43;10.32;;;4.80;99.90;;;;;;4892742;29;20216;-77
2023/03/06 04:05:15;;;;;;;11.52;10.32;;;4.70;99.90;;;;;;4887407;29;20213;-76
2023/03/06 04:07:44;;;;;;;11.07;9.88;;;4.80;99.90;;;;;;4888326;29;20230;-77
2023/03/06 04:10:14;;;;;;;14.10;10.35;;;4.70;99.90;;;;;;4888112;29;20226;-76
2023/03/06 04:12:42;;;;;;;11.20;10.00;;;4.70;99.90;;;;;;4886046;29;20230;-77
2023/03/06 04:15:10;;;;;;;11.75;9.50;;;4.70;99.90;;;;;;4886424;29;20222;-76
2023/03/06 04:17:39;;;;;;;14.30;10.90;;;4.60;99.90;;;;;;4891563;29;20588;-78
2023/03/06 04:20:08;;;;;;;12.13;10.50;;;4.60;99.90;;;;;;4886676;29;20255;-77
2023/03/06 04:22:36;;;;;;;10.75;9.65;;;4.70;99.90;;;;;;4881687;29;20248;-75
2023/03/06 04:25:05;;;;;;;11.55;10.35;;;4.70;99.90;;;;;;4885881;29;20573;-75
2023/03/06 04:27:34;;;;;;;10.88;9.88;;;4.70;99.90;;;;;;4890201;29;20235;-73
2023/03/06 04:30:03;;;;;;;10.63;9.73;;;4.70;99.90;;;;;;4891540;29;20199;-75
2023/03/06 04:32:31;;;;;;;11.10;9.95;;;4.80;99.90;;;;;;4891290;29;20207;-77
2023/03/06 04:34:59;;;;;;;11.63;9.27;;;4.70;99.90;;;;;;4886574;29;20211;-77
2023/03/06 04:37:28;;;;;;;11.88;10.00;;;4.70;99.90;;;;;;4888742;29;20284;-74
2023/03/06 04:39:57;;;;;;;12.77;9.13;;;4.70;99.90;;;;;;4885194;29;20288;-77
2023/03/06 04:42:25;;;;;;;10.38;9.38;;;4.60;99.90;;;;;;4884944;29;20246;-76
2023/03/06 04:44:54;;;;;;;10.00;8.98;;;4.60;99.90;;;;;;4887916;29;20206;-78
2023/03/06 04:47:22;;;;;;;11.73;10.20;;;4.60;99.90;;;;;;4884932;29;20208;-78
2023/03/06 04:49:50;;;;;;;10.38;9.30;;;4.60;99.90;;;;;;4891053;29;20287;-76
2023/03/06 04:52:18;;;;;;;10.57;9.48;;;4.60;99.90;;;;;;4884200;29;20210;-77
2023/03/06 04:54:47;;;;;;;12.52;9.43;;;4.60;99.90;;;;;;4889588;29;20665;-79
2023/03/06 04:57:15;;;;;;;9.82;8.82;;;4.60;99.90;;;;;;4887221;29;20216;-77
2023/03/06 04:59:43;;;;;;;11.50;10.32;;;4.50;99.90;;;;;;4887084;29;20285;-76
2023/03/06 05:02:12;;;;;;;12.15;9.63;;;4.50;99.90;;;;;;4880428;29;20643;-78
2023/03/06 05:04:40;;;;;;;10.82;9.05;;;4.50;99.90;;;;;;4883578;29;20209;-77
2023/03/06 05:07:08;;;;;;;10.18;9.27;;;4.50;99.90;;;;;;4885262;29;20209;-79
2023/03/06 05:09:37;;;;;;;9.60;8.70;;;4.60;99.90;;;;;;4884520;29;20218;-79
2023/03/06 05:12:06;;;;;;;10.27;9.27;;;4.60;99.90;;;;;;4890185;29;20299;-77
2023/03/06 05:14:34;;;;;;;11.27;10.23;;;4.50;99.90;;;;;;4886144;29;20224;-78
2023/03/06 05:17:02;;;;;;;11.55;10.43;;;4.40;99.90;;;;;;4890651;29;20264;-76
2023/03/06 05:19:32;;;;;;;11.40;10.20;;;4.50;99.90;;;;;;4887479;29;20280;-77
2023/03/06 05:22:00;;;;;;;11.05;9.95;;;4.40;99.90;;;;;;4892156;29;20269;-78
2023/03/06 05:24:28;;;;;;;10.95;9.93;;;4.50;99.90;;;;;;4883898;29;20207;-77
2023/03/06 05:26:56;;;;;;;13.02;9.57;;;4.40;99.90;;;;;;4884149;29;20211;-79
2023/03/06 05:29:24;;;;;;;11.05;9.68;;;4.40;99.90;;;;;;4882095;29;20229;-78
2023/03/06 05:31:55;;;;;;;10.23;9.25;;;4.50;99.90;;;;;;4885441;29;20214;-80
2023/03/06 05:34:23;;;;;;;12.85;9.73;;;4.60;99.90;;;;;;4868687;29;20254;-77
2023/03/06 05:36:53;;;;;;;12.25;10.23;;;4.60;99.90;;;;;;4882274;29;20214;-76
2023/03/06 05:39:22;;;;;;;12.25;10.48;;;4.60;99.90;;;;;;4881966;29;20240;-77
2023/03/06 05:41:50;;;;;;;11.05;10.13;;;4.50;99.90;;;;;;4885715;29;20631;-77
2023/03/06 05:44:18;;;;;;;12.20;9.77;;;4.50;99.90;;;;;;4888333;29;20206;-80
2023/03/06 05:46:48;;;;;;;10.18;9.15;;;4.60;99.90;;;;;;4884326;29;20203;-77
2023/03/06 05:49:16;;;;;;;17.52;12.05;;;4.60;99.90;;;;;;4869893;29;20240;-77
2023/03/06 05:51:45;;;;;;;11.25;10.23;;;4.60;99.90;;;;;;4892242;29;20314;-76
2023/03/06 05:54:14;;;;;;;11.13;10.02;;;4.60;99.90;;;;;;4888538;29;20256;-75
2023/03/06 05:56:42;;;;;;;12.15;10.95;;;4.60;99.90;;;;;;4890542;29;20202;-75
2023/03/06 05:59:11;;;;;;;10.93;9.90;;;4.60;99.90;;;;;;4886330;29;20222;-74
2023/03/06 06:01:39;;;;;;;11.05;10.10;;;4.70;99.90;;;;;;4867709;29;20827;-74
2023/03/06 06:04:07;;;;;;;20.80;11.25;;;4.60;99.90;;;;;;4885413;29;20202;-76
2023/03/06 06:06:36;;;;;;;14.55;11.13;;;4.60;99.90;;;;;;4887262;29;20213;-75
2023/03/06 06:09:04;;;;;;;15.88;11.90;;;4.60;99.90;;;;;;4883997;29;20315;-73
2023/03/06 06:11:34;;;;;;;13.80;10.75;;;4.60;99.90;;;;;;4883813;29;20211;-76
2023/03/06 06:14:02;;;;;;;13.05;11.35;;;4.60;99.90;;;;;;4868728;29;20222;-76
2023/03/06 06:16:30;;;;;;;12.75;11.25;;;4.70;99.90;;;;;;4886367;29;20208;-74
2023/03/06 06:18:58;;;;;;;11.75;10.60;;;4.60;99.90;;;;;;4886789;29;20288;-74
2023/03/06 06:21:26;;;;;;;13.68;12.20;;;4.70;99.90;;;;;;4870654;29;21056;-76
2023/03/06 06:23:54;;;;;;;14.02;11.32;;;4.70;99.90;;;;;;4882763;29;20205;-77
2023/03/06 06:26:22;;;;;;;12.90;11.23;;;4.70;99.90;;;;;;4869221;29;20199;-79
2023/03/06 06:28:52;;;;;;;12.23;10.60;;;4.70;99.90;;;;;;4889946;29;20225;-80
2023/03/06 06:31:20;;;;;;;13.52;12.05;;;4.70;99.90;;;;;;4887804;29;20193;-76
2023/03/06 06:33:49;;;;;;;11.30;10.20;;;4.70;99.90;;;;;;4870652;29;20206;-78
2023/03/06 06:36:18;;;;;;;14.18;11.48;;;4.70;99.90;;;;;;4885694;29;20205;-77
2023/03/06 06:38:47;;;;;;;12.35;11.00;;;4.70;99.90;;;;;;4887994;29;20231;-74
2023/03/06 06:41:15;;;;;;;12.27;10.88;;;4.70;99.90;;;;;;4876385;29;20209;-74
2023/03/06 06:44:07;;;;;;;12.75;11.45;;;4.70;99.90;;;;;;4872251;29;20246;-77
2023/03/06 06:46:36;;;;;;;12.55;11.00;;;4.60;99.90;;;;;;4870374;29;20214;-75
2023/03/06 06:49:24;;;;;;;13.13;11.88;;;4.70;99.90;;;;;;4871662;29;21038;-76
2023/03/06 06:51:52;;;;;;;11.50;10.40;;;4.80;99.90;;;;;;4885986;29;20269;-76
2023/03/06 06:54:21;;;;;;;13.50;11.98;;;4.80;99.90;;;;;;4888364;29;20348;-75
2023/03/06 06:56:49;;;;;;;12.43;10.90;;;4.80;99.90;;;;;;4881641;29;20307;-74
2023/03/06 06:59:18;;;;;;;12.98;11.10;;;4.80;99.90;;;;;;4894487;29;20256;-75
2023/03/06 07:01:47;;;;;;;11.77;10.60;;;4.70;99.90;;;;;;4891192;29;20206;-74
2023/03/06 07:04:16;;;;;;;13.48;11.88;;;4.80;99.90;;;;;;4887207;29;20209;-75
2023/03/06 07:06:45;;;;;;;14.52;11.50;;;4.80;99.90;;;;;;4891892;29;20205;-75
2023/03/06 07:09:14;;;;;;;14.13;11.18;;;4.80;99.90;;;;;;4895036;29;20285;-75
2023/03/06 07:11:43;;;;;;;11.63;10.02;;;4.80;99.90;;;;;;4877548;29;20201;-75
2023/03/06 07:14:11;;;;;;;12.05;10.85;;;4.80;99.90;;;;;;4900340;29;20281;-74
2023/03/06 07:16:40;;;;;;;11.02;9.93;;;4.80;99.90;;;;;;4892827;29;20215;-75
2023/03/06 07:19:09;;;;;;;11.02;10.02;;;4.90;99.90;;;;;;4868188;29;20219;-73
2023/03/06 07:21:37;;;;;;;10.85;9.80;;;4.80;99.90;;;;;;4888200;29;20274;-77
2023/03/06 07:24:05;;;;;;;12.07;9.15;;;4.80;99.90;;;;;;4889998;29;20217;-75
2023/03/06 07:26:34;;;;;;;12.77;11.48;;;4.80;99.90;;;;;;4882350;29;20211;-75
2023/03/06 07:29:02;;;;;;;11.65;10.27;;;4.90;99.90;;;;;;4887626;29;20468;-75
2023/03/06 07:31:31;;;;;;;11.07;9.98;;;4.80;99.90;;;;;;4888625;29;20222;-79
2023/03/06 07:34:00;;;;;;;12.82;9.48;;;4.90;99.90;;;;;;4888011;29;20196;-75
2023/03/06 07:36:32;;;;;;;13.80;10.57;;;4.80;99.90;;;;;;4874100;29;20683;-79
2023/03/06 07:39:01;;;;;;;13.98;9.77;;;4.90;99.90;;;;;;4891162;29;20776;-76
2023/03/06 07:41:29;;;;;;;12.95;11.07;;;4.90;99.90;;;;;;4882351;29;20230;-78
2023/03/06 07:43:57;;;;;;;10.57;9.52;;;4.80;99.90;;;;;;4877429;29;20209;-77
2023/03/06 07:46:25;;;;;;;14.73;12.25;;;4.90;99.90;;;;;;4895516;29;20217;-78
2023/03/06 07:48:53;;;;;;;19.25;15.48;;;5.00;99.90;;;;;;4891494;29;20241;-77
2023/03/06 07:51:24;;;;;;;14.13;11.10;;;5.00;99.90;;;;;;4881628;29;20204;-74
2023/03/06 07:53:52;;;;;;;13.15;11.80;;;5.00;99.90;;;;;;4894282;29;20213;-77
2023/03/06 07:56:20;;;;;;;12.60;11.00;;;5.10;99.90;;;;;;4883485;29;20210;-75
2023/03/06 07:58:49;;;;;;;12.43;11.25;;;5.10;99.90;;;;;;4888508;29;20763;-77
2023/03/06 08:01:20;;;;;;;12.27;10.30;;;5.10;99.90;;;;;;4878774;29;20710;-78
2023/03/06 08:03:48;;;;;;;16.13;14.43;;;5.20;99.90;;;;;;4893104;29;20210;-79
2023/03/06 08:06:20;;;;;;;12.68;10.50;;;5.20;99.90;;;;;;4890974;29;20313;-77
2023/03/06 08:08:51;;;;;;;12.30;9.82;;;5.30;99.90;;;;;;4873868;29;20225;-78
2023/03/06 08:11:24;;;;;;;12.98;11.55;;;5.30;99.90;;;;;;4875514;29;20671;-76
2023/03/06 08:13:53;;;;;;;10.00;9.00;;;5.40;99.90;;;;;;4900842;29;20280;-79
2023/03/06 08:16:22;;;;;;;15.10;13.52;;;5.50;99.90;;;;;;4892648;29;20211;-77
2023/03/06 08:18:51;;;;;;;11.45;10.27;;;5.50;99.90;;;;;;4890351;29;20236;-79
2023/03/06 08:21:22;;;;;;;16.40;10.70;;;5.50;99.90;;;;;;4891812;29;20222;-77
2023/03/06 08:23:52;;;;;;;9.82;8.70;;;5.60;99.90;;;;;;4889378;29;20648;-79
2023/03/06 08:26:23;;;;;;;10.43;9.32;;;5.60;99.90;;;;;;4881581;29;20226;-78
2023/03/06 08:28:51;;;;;;;10.20;9.20;;;5.80;99.90;;;;;;4893090;29;20219;-77
2023/03/06 08:31:27;;;;;;;9.30;8.40;;;5.70;99.90;;;;;;4888351;29;20211;-79
2023/03/06 08:33:58;;;;;;;14.98;9.18;;;5.80;99.90;;;;;;4877448;29;20226;-76
2023/03/06 08:36:27;;;;;;;11.07;8.93;;;5.80;99.90;;;;;;4882818;29;20207;-77
2023/03/06 08:38:57;;;;;;;9.43;8.60;;;5.80;99.90;;;;;;4896140;29;20279;-78
2023/03/06 08:41:26;;;;;;;11.13;9.55;;;5.90;99.90;;;;;;4890559;29;20281;-81
2023/03/06 08:43:54;;;;;;;11.15;9.88;;;5.90;99.90;;;;;;4889048;29;20223;-77
2023/03/06 08:46:24;;;;;;;9.88;8.98;;;5.90;99.90;;;;;;4893331;29;20230;-78
2023/03/06 08:48:53;;;;;;;9.68;8.77;;;6.00;99.90;;;;;;4885728;29;20215;-77
2023/03/06 08:51:21;;;;;;;9.35;8.45;;;6.00;99.90;;;;;;4890745;29;21118;-77
2023/03/06 08:53:50;;;;;;;10.20;9.32;;;6.10;99.90;;;;;;4896835;29;20207;-80
2023/03/06 08:56:22;;;;;;;9.25;8.35;;;6.00;99.90;;;;;;4889367;29;20254;-76
2023/03/06 08:58:51;;;;;;;10.23;9.40;;;6.10;99.90;;;;;;4891726;29;20966;-77
2023/03/06 09:01:21;;;;;;;9.48;8.57;;;6.00;99.90;;;;;;4893175;29;20218;-77
2023/03/06 09:03:50;;;;;;;9.40;8.55;;;6.10;99.90;;;;;;4894586;29;20732;-79
2023/03/06 09:06:18;;;;;;;9.75;8.85;;;6.10;99.90;;;;;;4892095;29;20789;-82
2023/03/06 09:08:46;;;;;;;9.05;8.23;;;6.00;99.90;;;;;;4892384;29;20246;-77
2023/03/06 09:11:16;;;;;;;8.88;8.13;;;6.00;99.90;;;;;;4874504;29;20262;-77
2023/03/06 09:13:45;;;;;;;9.30;8.50;;;6.00;99.90;;;;;;4891249;29;20282;-77
2023/03/06 09:16:13;;;;;;;8.50;7.80;;;6.10;99.90;;;;;;4885432;29;20471;-78
2023/03/06 09:18:42;;;;;;;9.25;8.40;;;6.10;99.90;;;;;;4892783;29;20227;-76
2023/03/06 09:21:11;;;;;;;9.02;8.23;;;6.20;99.90;;;;;;4888267;29;20225;-78
2023/03/06 09:23:40;;;;;;;9.55;8.75;;;6.20;99.90;;;;;;4885225;29;20217;-78
2023/03/06 09:26:08;;;;;;;9.07;8.38;;;6.20;99.90;;;;;;4871107;29;20210;-79
2023/03/06 09:28:37;;;;;;;9.55;8.75;;;6.20;99.90;;;;;;4885297;29;20225;-75
2023/03/06 09:31:10;;;;;;;9.27;8.30;;;6.20;99.90;;;;;;4885765;29;20201;-76
2023/03/06 09:33:39;;;;;;;10.32;9.43;;;6.20;99.90;;;;;;4880177;29;20494;-79
2023/03/06 09:36:10;;;;;;;9.37;8.53;;;6.20;99.90;;;;;;4884113;29;20222;-78
2023/03/06 09:38:38;;;;;;;7.93;7.32;;;6.10;99.90;;;;;;4887108;29;20782;-77
2023/03/06 09:41:15;;;;;;;9.88;8.98;;;6.10;99.90;;;;;;4885625;29;22024;-78
2023/03/06 09:43:46;;;;;;;8.25;7.65;;;6.10;99.90;;;;;;4869694;29;20575;-78
2023/03/06 09:46:24;;;;;;;8.88;8.18;;;6.10;99.90;;;;;;4885318;29;20229;-76
2023/03/06 09:49:09;;;;;;;8.57;7.75;;;6.10;99.90;;;;;;4897047;29;20227;-77
2023/03/06 09:51:51;;;;;;;8.80;8.10;;;6.10;99.90;;;;;;4894992;29;20719;-78
2023/03/06 09:54:26;;;;;;;9.13;8.10;;;6.10;99.90;;;;;;4891362;29;20841;-78
2023/03/06 09:56:54;;;;;;;8.75;7.95;;;6.20;99.90;;;;;;4893414;29;20544;-76
2023/03/06 09:59:25;;;;;;;8.37;7.77;;;6.20;99.90;;;;;;4890972;29;20231;-78
2023/03/06 10:02:00;;;;;;;8.57;7.70;;;6.30;99.90;;;;;;4874397;29;20482;-77
2023/03/06 10:04:34;;;;;;;9.20;8.40;;;6.30;99.90;;;;;;4890055;29;20526;-77
2023/03/06 10:07:11;;;;;;;9.00;8.27;;;6.30;99.90;;;;;;4891682;29;20715;-76
2023/03/06 10:09:45;;;;;;;9.53;8.77;;;6.20;99.90;;;;;;4890540;29;20222;-80
2023/03/06 10:12:22;;;;;;;9.73;8.83;;;6.20;99.90;;;;;;4904490;29;20803;-77
2023/03/06 10:15:11;;;;;;;11.37;10.27;;;6.20;99.90;;;;;;4881136;29;20533;-76
2023/03/06 10:17:42;;;;;;;7.82;7.32;;;6.20;99.90;;;;;;4892154;29;20478;-77
2023/03/06 10:20:22;;;;;;;10.98;8.13;;;6.10;99.90;;;;;;4891943;29;20210;-78
2023/03/06 10:23:09;;;;;;;10.17;9.37;;;6.10;99.90;;;;;;4895809;29;20226;-80
2023/03/06 10:25:46;;;;;;;9.83;8.93;;;6.20;99.90;;;;;;4888977;29;20511;-78
2023/03/06 10:28:17;;;;;;;8.30;7.70;;;6.20;99.90;;;;;;4875602;29;20496;-77
2023/03/06 10:30:52;;;;;;;10.90;8.63;;;6.20;99.90;;;;;;4892962;29;20202;-79
2023/03/06 10:33:42;;;;;;;9.13;8.32;;;6.20;99.90;;;;;;4887719;29;20455;-78
2023/03/06 10:36:14;;;;;;;10.60;8.40;;;6.20;99.90;;;;;;4889569;29;20562;-80
2023/03/06 10:38:44;;;;;;;8.93;8.10;;;6.30;99.90;;;;;;4888305;29;20477;-76
2023/03/06 10:41:22;;;;;;;9.70;8.77;;;6.30;99.90;;;;;;4887153;29;20192;-76
2023/03/06 10:44:23;;;;;;;9.17;8.37;;;6.20;99.90;;;;;;4887155;29;20735;-80
2023/03/06 10:46:53;;;;;;;7.97;7.35;;;6.20;99.90;;;;;;4889763;29;20462;-78
2023/03/06 10:49:33;;;;;;;9.82;8.50;;;6.20;99.90;;;;;;4887847;29;20227;-78
2023/03/06 10:52:05;;;;;;;9.98;9.05;;;6.20;99.90;;;;;;4887353;29;20209;-78
2023/03/06 10:54:35;;;;;;;8.52;7.72;;;6.20;99.90;;;;;;4890762;29;20228;-78
2023/03/06 10:57:24;;;;;;;9.07;7.95;;;6.20;99.90;;;;;;4896461;29;20752;-76
2023/03/06 10:59:54;;;;;;;8.63;7.93;;;6.20;99.90;;;;;;4879181;29;20593;-77
2023/03/06 11:02:29;;;;;;;8.50;7.70;;;6.20;99.90;;;;;;4889941;29;20219;-75
2023/03/06 11:05:00;;;;;;;8.50;7.70;;;6.20;99.90;;;;;;4898453;29;20453;-76
2023/03/06 11:07:29;;;;;;;8.10;7.40;;;6.20;99.90;;;;;;4894122;29;20199;-76
2023/03/06 11:10:17;;;;;;;9.27;8.47;;;6.20;99.90;;;;;;4889322;29;20227;-77
2023/03/06 11:12:57;;;;;;;10.10;9.13;;;6.20;99.90;;;;;;4891273;29;20542;-77
2023/03/06 11:15:26;;;;;;;8.32;7.63;;;6.20;99.90;;;;;;4891193;29;20456;-80
2023/03/06 11:17:58;;;;;;;9.33;8.57;;;6.20;99.90;;;;;;4891704;29;20230;-78
2023/03/06 11:20:33;;;;;;;8.83;8.03;;;6.30;99.90;;;;;;4886942;29;20461;-79
2023/03/06 11:23:20;;;;;;;8.93;8.13;;;6.30;99.90;;;;;;4889336;29;20574;-79
2023/03/06 11:25:55;;;;;;;9.07;8.30;;;6.30;99.90;;;;;;4887531;29;20502;-78
2023/03/06 11:28:28;;;;;;;8.80;8.00;;;6.30;99.90;;;;;;4888421;29;20284;-76
2023/03/06 11:31:02;;;;;;;8.83;8.13;;;6.30;99.90;;;;;;4890292;29;20984;-77
2023/03/06 11:33:38;;;;;;;8.43;7.60;;;6.30;99.90;;;;;;4873499;29;20459;-75
2023/03/06 11:36:15;;;;;;;8.30;7.60;;;6.40;99.90;;;;;;4892591;29;20454;-76
2023/03/06 11:38:49;;;;;;;9.23;8.33;;;6.50;99.90;;;;;;4881623;29;21047;-77
2023/03/06 11:41:26;;;;;;;9.17;8.27;;;6.60;99.90;;;;;;4887521;29;20450;-77
2023/03/06 11:44:00;;;;;;;8.17;7.47;;;6.70;99.90;;;;;;4895002;29;20483;-76
2023/03/06 11:46:33;;;;;;;8.97;8.27;;;6.80;99.90;;;;;;4891738;29;20468;-80
2023/03/06 11:49:14;;;;;;;8.30;7.70;;;6.80;99.90;;;;;;4895369;29;22498;-76
2023/03/06 11:51:51;;;;;;;8.70;7.90;;;6.90;99.90;;;;;;4891016;29;20474;-76
2023/03/06 11:54:19;;;;;;;8.90;8.20;;;7.00;99.90;;;;;;4894847;29;20532;-78
2023/03/06 11:56:54;;;;;;;9.27;8.57;;;7.10;99.90;;;;;;4889903;29;20463;-77
2023/03/06 11:59:43;;;;;;;8.50;7.80;;;7.10;99.90;;;;;;4893653;29;20485;-77
2023/03/06 12:02:23;;;;;;;8.93;8.10;;;7.10;99.90;;;;;;4888688;29;20464;-75
2023/03/06 12:04:58;;;;;;;8.33;7.63;;;7.20;99.90;;;;;;4895923;29;20462;-78
2023/03/06 12:07:31;;;;;;;9.87;7.50;;;7.40;99.90;;;;;;4896095;29;20455;-76
2023/03/06 12:10:10;;;;;;;9.77;8.87;;;7.60;99.90;;;;;;4889571;29;20495;-77
2023/03/06 12:13:00;;;;;;;9.63;8.00;;;7.40;99.90;;;;;;4887954;29;20898;-78
2023/03/06 12:15:43;;;;;;;8.10;7.30;;;7.40;99.90;;;;;;4892966;29;20570;-75
2023/03/06 12:18:29;;;;;;;8.73;7.90;;;7.30;99.90;;;;;;4887895;29;20479;-77
2023/03/06 12:21:07;;;;;;;7.80;7.17;;;7.20;99.90;;;;;;4891225;29;20494;-76
2023/03/06 12:24:03;;;;;;;8.47;7.80;;;7.10;99.90;;;;;;4888446;29;21052;-78
2023/03/06 12:26:43;;;;;;;8.33;7.00;;;7.40;99.90;;;;;;4884944;29;20499;-74
2023/03/06 12:29:39;;;;;;;9.13;8.20;;;7.40;99.90;;;;;;4884111;29;20479;-80
2023/03/06 12:32:17;;;;;;;8.20;7.40;;;7.30;99.90;;;;;;4889652;29;20462;-77
2023/03/06 12:35:08;;;;;;;8.20;7.40;;;7.40;99.90;;;;;;4889000;29;20470;-75
2023/03/06 12:37:50;;;;;;;8.43;7.63;;;7.40;99.90;;;;;;4885837;29;20463;-76
2023/03/06 12:40:36;;;;;;;8.20;7.60;;;7.30;98.70;;;;;;4883656;29;20448;-77
2023/03/06 12:43:25;;;;;;;7.73;6.90;;;7.20;99.00;;;;;;4884042;29;20482;-78
2023/03/06 12:45:56;;;;;;;8.77;6.67;;;7.40;99.30;;;;;;4886587;29;20849;-76
2023/03/06 12:48:29;;;;;;;7.50;6.90;;;7.40;97.70;;;;;;4886256;29;20483;-81
2023/03/06 12:50:58;;;;;;;7.27;6.63;;;7.30;95.90;;;;;;4889165;29;20451;-77
2023/03/06 12:53:29;;;;;;;8.73;7.83;;;7.30;95.20;;;;;;4887623;29;20460;-78
2023/03/06 12:56:01;;;;;;;12.83;9.00;;;7.40;96.40;;;;;;4876449;29;20471;-78
2023/03/06 12:58:52;;;;;;;7.30;6.63;;;7.40;95.30;;;;;;4894511;29;20490;-77
2023/03/06 13:01:45;;;;;;;8.17;7.17;;;7.30;95.10;;;;;;4886641;29;20474;-78
2023/03/06 13:04:35;;;;;;;8.43;7.63;;;7.30;95.60;;;;;;4887669;29;20896;-78
2023/03/06 13:07:18;;;;;;;7.20;6.50;;;7.20;95.10;;;;;;4893314;29;20487;-77